Notice: Use of undefined constant NAME - assumed 'NAME' in /home/bismarckweather/public_html/wxwuhistory.php on line 72

Notice: Use of undefined constant NAME - assumed 'NAME' in /home/bismarckweather/public_html/wxwuhistory.php on line 72
^^
Station Historical Data
Daily Summary for February 14, 2018 Units:  Metric    English   Both
« Previous Day
Next Day »
Daily Weekly Monthly Yearly Custom
  High: Low: Average:
Temperature: 5.8 °C -6.3 °C 0.1 °C
Dew Point: 0.2 °C -10 °C -4.6 °C
Humidity: 92% 60% 71%
Wind Speed: 12.9km/h 0km/h 5km/h
Wind Gust: 14.5km/h - -
Wind- - WSW
Pressure: 1008.7 hPa 999.2 hPa -
Precipitation: 0 mm    
Historical Graphs
 
 
Tabular Data for February 14, 2018
Time Temperature Dew Point Pressure Wind Wind Speed Wind Gust Humidity Rainfall Rate (Hourly) solar Conditions
00:01 -4.2 °C -9 °C 1008.7 hPa WSW 6.4 km/h 9.7 km/h 69% 0 mm 0 W/m2
00:06 -4.1 °C -8.9 °C 1008.7 hPa SW 3.2 km/h 9.7 km/h 69% 0 mm 0 W/m2
00:11 -4.1 °C -8.9 °C 1008.4 hPa WSW 6.4 km/h 9.7 km/h 69% 0 mm 0 W/m2
00:16 -4.2 °C -9.1 °C 1008.4 hPa WSW 6.4 km/h 8 km/h 69% 0 mm 0 W/m2
00:21 -4.6 °C -9.4 °C 1008.4 hPa WSW 6.4 km/h 8 km/h 69% 0 mm 0 W/m2
00:26 -4.8 °C -9.4 °C 1008.4 hPa WSW 8 km/h 8 km/h 70% 0 mm 0 W/m2
00:31 -4.9 °C -9.6 °C 1008.4 hPa WSW 8 km/h 8 km/h 70% 0 mm 0 W/m2
00:36 -5.1 °C -9.5 °C 1008.4 hPa WSW 4.8 km/h 8 km/h 71% 0 mm 0 W/m2
00:41 -5.2 °C -9.6 °C 1008.4 hPa Calm   8 km/h 71% 0 mm 0 W/m2
00:46 -5.2 °C -9.6 °C 1008 hPa WSW 8 km/h 8 km/h 71% 0 mm 0 W/m2
00:51 -5 °C -9.4 °C 1008 hPa West 6.4 km/h 8 km/h 71% 0 mm 0 W/m2
00:56 -4.8 °C -9.4 °C 1008 hPa WSW 6.4 km/h 8 km/h 70% 0 mm 0 W/m2
01:01 -5 °C -9.6 °C 1008 hPa WSW 6.4 km/h 8 km/h 70% 0 mm 0 W/m2
01:06 -5.2 °C -9.7 °C 1008 hPa WSW 6.4 km/h 8 km/h 71% 0 mm 0 W/m2
01:11 -5.3 °C -9.7 °C 1007.7 hPa WSW 4.8 km/h 8 km/h 71% 0 mm 0 W/m2
01:16 -5.2 °C -9.7 °C 1007.7 hPa Calm   8 km/h 71% 0 mm 0 W/m2
01:21 -5.2 °C -9.4 °C 1007.7 hPa Calm   6.4 km/h 72% 0 mm 0 W/m2
01:26 -5.1 °C -9.3 °C 1007.3 hPa Calm   6.4 km/h 72% 0 mm 0 W/m2
01:31 -4.9 °C -9.3 °C 1007.3 hPa SSW 4.8 km/h 6.4 km/h 71% 0 mm 0 W/m2
01:36 -4.8 °C -9.3 °C 1007.3 hPa Calm   6.4 km/h 71% 0 mm 0 W/m2
01:41 -4.9 °C -9.3 °C 1007.3 hPa SW 3.2 km/h 6.4 km/h 71% 0 mm 0 W/m2
01:46 -4.8 °C -9.2 °C 1007 hPa SW 1.6 km/h 6.4 km/h 71% 0 mm 0 W/m2
01:51 -4.8 °C -9.2 °C 1007 hPa Calm   6.4 km/h 71% 0 mm 0 W/m2
01:56 -4.8 °C -9.2 °C 1007 hPa SW 4.8 km/h 8 km/h 71% 0 mm 0 W/m2
02:01 -4.6 °C -9.1 °C 1007 hPa SSW 6.4 km/h 8 km/h 71% 0 mm 0 W/m2
02:06 -4.4 °C -8.8 °C 1007 hPa SSW 6.4 km/h 8 km/h 71% 0 mm 0 W/m2
02:11 -4.3 °C -8.9 °C 1006.7 hPa Calm   8 km/h 70% 0 mm 0 W/m2
02:16 -4.4 °C -9.2 °C 1006.7 hPa Calm   8 km/h 69% 0 mm 0 W/m2
02:21 -4.5 °C -9.2 °C 1006.7 hPa SSW 6.4 km/h 8 km/h 70% 0 mm 0 W/m2
02:26 -4.4 °C -8.9 °C 1006.7 hPa SSW 8 km/h 8 km/h 71% 0 mm 0 W/m2
02:31 -4.2 °C -8.7 °C 1006.7 hPa SSW 6.4 km/h 8 km/h 71% 0 mm 0 W/m2
02:36 -4 °C -8.7 °C 1006.3 hPa SSW 6.4 km/h 8 km/h 70% 0 mm 0 W/m2
02:41 -3.9 °C -8.6 °C 1006.3 hPa SSW 6.4 km/h 9.7 km/h 70% 0 mm 0 W/m2
02:46 -3.8 °C -8.4 °C 1006.3 hPa Calm   9.7 km/h 70% 0 mm 0 W/m2
02:51 -3.9 °C -8.7 °C 1006.3 hPa SSW 1.6 km/h 8 km/h 69% 0 mm 0 W/m2
02:56 -3.9 °C -8.6 °C 1006.3 hPa SSW 6.4 km/h 11.3 km/h 70% 0 mm 0 W/m2
03:01 -3.9 °C -8.6 °C 1006 hPa SSW 8 km/h 11.3 km/h 70% 0 mm 0 W/m2
03:06 -3.8 °C -8.4 °C 1006 hPa SSW 6.4 km/h 9.7 km/h 70% 0 mm 0 W/m2
03:11 -3.8 °C -8.7 °C 1006 hPa SSW 3.2 km/h 9.7 km/h 69% 0 mm 0 W/m2
03:16 -3.9 °C -8.6 °C 1006 hPa SSW 6.4 km/h 9.7 km/h 70% 0 mm 0 W/m2
03:21 -3.7 °C -8.3 °C 1005.6 hPa SSW 4.8 km/h 9.7 km/h 70% 0 mm 0 W/m2
03:26 -3.6 °C -8.5 °C 1005.6 hPa South 3.2 km/h 8 km/h 69% 0 mm 0 W/m2
03:31 -4.1 °C -9.3 °C 1005.6 hPa Calm   8 km/h 67% 0 mm 0 W/m2
03:36 -4.8 °C -9.8 °C 1005.6 hPa Calm   4.8 km/h 68% 0 mm 0 W/m2
03:41 -5.4 °C -9.8 °C 1005.6 hPa Calm     71% 0 mm 0 W/m2
03:46 -5.7 °C -9.7 °C 1005.3 hPa Calm   3.2 km/h 73% 0 mm 0 W/m2
03:51 -5.9 °C -10 °C 1005.3 hPa Calm   4.8 km/h 73% 0 mm 0 W/m2
03:56 -6.1 °C -10 °C 1005 hPa Calm   4.8 km/h 74% 0 mm 0 W/m2
04:01 -6.2 °C -9.9 °C 1005 hPa Calm   4.8 km/h 75% 0 mm 0 W/m2
04:06 -6.3 °C -9.8 °C 1005 hPa Calm   1.6 km/h 76% 0 mm 0 W/m2
04:11 -6.2 °C -9.6 °C 1004.6 hPa SSE 3.2 km/h 3.2 km/h 77% 0 mm 0 W/m2
04:16 -5.8 °C -9.3 °C 1004.6 hPa SSW 6.4 km/h 8 km/h 76% 0 mm 0 W/m2
04:21 -5.2 °C -8.8 °C 1005 hPa Calm   9.7 km/h 76% 0 mm 0 W/m2
04:26 -4.7 °C -8.7 °C 1004.6 hPa Calm   9.7 km/h 74% 0 mm 0 W/m2
04:31 -4.4 °C -8.5 °C 1004.6 hPa Calm   6.4 km/h 73% 0 mm 0 W/m2
04:36 -4.2 °C -8.5 °C 1004.6 hPa South 4.8 km/h 6.4 km/h 72% 0 mm 0 W/m2
04:41 -4 °C -8.5 °C 1004.3 hPa South 3.2 km/h 8 km/h 71% 0 mm 0 W/m2
04:46 -4 °C -8.7 °C 1004.3 hPa South 4.8 km/h 8 km/h 70% 0 mm 0 W/m2
04:51 -4.2 °C -8.9 °C 1004.3 hPa Calm   8 km/h 70% 0 mm 0 W/m2
04:56 -4.4 °C -9.1 °C 1004.3 hPa Calm   8 km/h 70% 0 mm 0 W/m2
05:01 -5.1 °C -8.6 °C 1004.3 hPa Calm   6.4 km/h 76% 0 mm 0 W/m2
05:06 -5.7 °C -9.9 °C 1004.3 hPa SSE 3.2 km/h 8 km/h 72% 0 mm 0 W/m2
05:11 -5.8 °C -9.9 °C 1004.3 hPa SSE 4.8 km/h 8 km/h 73% 0 mm 0 W/m2
05:16 -5.9 °C -9.8 °C 1004.3 hPa South 4.8 km/h 6.4 km/h 74% 0 mm 0 W/m2
05:21 -5.9 °C -9.7 °C 1003.9 hPa Calm   6.4 km/h 75% 0 mm 0 W/m2
05:26 -6 °C -9.7 °C 1003.9 hPa SSE 4.8 km/h 4.8 km/h 75% 0 mm 0 W/m2
05:31 -6 °C -9.7 °C 1003.9 hPa Calm   6.4 km/h 75% 0 mm 0 W/m2
05:36 -5.8 °C -9.5 °C 1003.9 hPa Calm   6.4 km/h 75% 0 mm 0 W/m2
05:41 -5.7 °C -9.4 °C 1003.6 hPa SSE 4.8 km/h 8 km/h 75% 0 mm 0 W/m2
05:46 -5.5 °C -9.2 °C 1003.6 hPa South 4.8 km/h 8 km/h 75% 0 mm 0 W/m2
05:51 -5.1 °C -9 °C 1003.6 hPa South 8 km/h 9.7 km/h 74% 0 mm 0 W/m2
05:56 -4.8 °C -8.9 °C 1003.6 hPa South 6.4 km/h 9.7 km/h 73% 0 mm 0 W/m2
06:01 -4.8 °C -9.1 °C 1003.6 hPa Calm   9.7 km/h 72% 0 mm 0 W/m2
06:06 -5 °C -9.3 °C 1003.6 hPa Calm   8 km/h 72% 0 mm 0 W/m2
06:11 -4.9 °C -9 °C 1003.6 hPa SSE 4.8 km/h 6.4 km/h 73% 0 mm 0 W/m2
06:16 -4.4 °C -8.5 °C 1003.3 hPa South 4.8 km/h 8 km/h 73% 0 mm 0 W/m2
06:21 -3.9 °C -8.4 °C 1003.3 hPa Calm   8 km/h 71% 0 mm 0 W/m2
06:26 -3.7 °C -8.4 °C 1002.9 hPa Calm   8 km/h 70% 0 mm 0 W/m2
06:31 -3.6 °C -8.5 °C 1002.9 hPa Calm   8 km/h 69% 0 mm 0 W/m2
06:36 -3.5 °C -8.4 °C 1002.9 hPa Calm   8 km/h 69% 0 mm 0 W/m2
06:41 -3.3 °C -8.2 °C 1003.3 hPa WSW 6.4 km/h 9.7 km/h 69% 0 mm 0 W/m2
06:46 -3 °C -8.3 °C 1002.9 hPa SW 4.8 km/h 9.7 km/h 67% 0 mm 0 W/m2
06:51 -3.2 °C -8.4 °C 1002.9 hPa Calm   9.7 km/h 67% 0 mm 0 W/m2
06:56 -3.4 °C -8.7 °C 1002.9 hPa Calm   9.7 km/h 67% 0 mm 0 W/m2
07:01 -3.5 °C -8.6 °C 1002.6 hPa Calm   3.2 km/h 68% 0 mm 0 W/m2
07:06 -3.7 °C -8.8 °C 1002.9 hPa Calm   1.6 km/h 68% 0 mm 0 W/m2
07:11 -3.8 °C -8.7 °C 1002.6 hPa Calm   1.6 km/h 69% 0 mm 0 W/m2
07:16 -3.9 °C -8.8 °C 1002.6 hPa SSW 4.8 km/h 6.4 km/h 69% 0 mm 0 W/m2
07:21 -4 °C -8.8 °C 1002.3 hPa SSW 1.6 km/h 6.4 km/h 69% 0 mm 0 W/m2
07:26 -4.1 °C -8.9 °C 1002.3 hPa Calm   6.4 km/h 69% 0 mm 0 W/m2
07:31 -4.1 °C -8.9 °C 1002.3 hPa Calm   6.4 km/h 69% 0 mm 0 W/m2
07:36 -4.1 °C -8.8 °C 1002.3 hPa SSW 3.2 km/h 6.4 km/h 70% 0 mm 0 W/m2
07:41 -4.1 °C -8.7 °C 1002.3 hPa Calm   6.4 km/h 70% 0 mm 0 W/m2
07:46 -3.9 °C -8.6 °C 1002.3 hPa Calm   6.4 km/h 70% 0 mm 5 W/m2
07:51 -3.9 °C -8.7 °C 1002.3 hPa Calm   1.6 km/h 69% 0 mm 7 W/m2
07:56 -3.8 °C -8.7 °C 1002.3 hPa Calm   6.4 km/h 69% 0 mm 9 W/m2
08:01 -3.7 °C -8.6 °C 1002.3 hPa Calm   6.4 km/h 69% 0 mm 11 W/m2
08:06 -3.5 °C -8.6 °C 1002.3 hPa Calm   6.4 km/h 68% 0 mm 12 W/m2
08:11 -3.4 °C -8.7 °C 1002.3 hPa Calm   3.2 km/h 67% 0 mm 16 W/m2
08:16 -3.3 °C -8.3 °C 1002.3 hPa Calm     68% 0 mm 18 W/m2
08:21 -3.2 °C -8.5 °C 1002.3 hPa Calm     67% 0 mm 19 W/m2
08:26 -3.2 °C -8.4 °C 1002.3 hPa Calm     67% 0 mm 30 W/m2
08:31 -3.1 °C -8.5 °C 1002.3 hPa Calm     66% 0 mm 40 W/m2
08:36 -2.9 °C -8.4 °C 1001.9 hPa Calm     66% 0 mm 49 W/m2
08:41 -2.7 °C -8.2 °C 1001.9 hPa Calm   8 km/h 66% 0 mm 62 W/m2
08:46 -2.5 °C -8.2 °C 1001.9 hPa SW 4.8 km/h 8 km/h 65% 0 mm 77 W/m2
08:51 -2.3 °C -8.2 °C 1001.9 hPa Calm   8 km/h 64% 0 mm 90 W/m2
08:56 -2.5 °C -8.4 °C 1001.9 hPa Calm   6.4 km/h 64% 0 mm 98 W/m2
09:01 -2.6 °C -8.3 °C 1001.9 hPa Calm     65% 0 mm 109 W/m2
09:06 -2.7 °C -8.2 °C 1001.9 hPa Calm     66% 0 mm 118 W/m2
09:11 -2.6 °C -8.1 °C 1001.9 hPa Calm     66% 0 mm 118 W/m2
09:17 -2.4 °C -7.9 °C 1001.9 hPa Calm     66% 0 mm 120 W/m2
09:22 -2.3 °C -7.8 °C 1001.9 hPa Calm     66% 0 mm 149 W/m2
09:27 -2 °C -7.5 °C 1001.6 hPa Calm     66% 0 mm 171 W/m2
09:32 -1.8 °C -7.5 °C 1001.6 hPa Calm     65% 0 mm 176 W/m2
09:37 -1.6 °C -7.3 °C 1001.9 hPa Calm     65% 0 mm 192 W/m2
09:42 -1.5 °C -7.4 °C 1001.9 hPa WSW 6.4 km/h 8 km/h 64% 0 mm 202 W/m2
09:47 -1.4 °C -7.1 °C 1001.9 hPa Calm   8 km/h 65% 0 mm 220 W/m2
09:52 -1.3 °C -7.2 °C 1001.9 hPa West 8 km/h 9.7 km/h 64% 0 mm 243 W/m2
09:57 -1.1 °C -7.1 °C 1001.6 hPa West 3.2 km/h 9.7 km/h 64% 0 mm 274 W/m2
10:02 -0.9 °C -6.8 °C 1001.6 hPa WSW 4.8 km/h 8 km/h 64% 0 mm 322 W/m2
10:07 -0.6 °C -6.6 °C 1001.9 hPa Calm   8 km/h 64% 0 mm 345 W/m2
10:12 -0.2 °C -6.4 °C 1001.9 hPa Calm   6.4 km/h 63% 0 mm 352 W/m2
10:17 0.3 °C -6.1 °C 1001.6 hPa Calm   1.6 km/h 62% 0 mm 357 W/m2
10:22 0.7 °C -5.9 °C 1001.6 hPa Calm   4.8 km/h 61% 0 mm 357 W/m2
10:27 0.8 °C -6.1 °C 1001.6 hPa Calm   4.8 km/h 60% 0 mm 369 W/m2
10:32 1 °C -5.9 °C 1001.6 hPa Calm     60% 0 mm 381 W/m2
10:37 1.1 °C -5.8 °C 1001.6 hPa Calm   1.6 km/h 60% 0 mm 390 W/m2
10:42 1.1 °C -5.4 °C 1001.6 hPa WSW 6.4 km/h 9.7 km/h 62% 0 mm 399 W/m2
10:47 1.1 °C -5.2 °C 1001.6 hPa West 8 km/h 9.7 km/h 63% 0 mm 408 W/m2
10:52 1.3 °C -4.9 °C 1001.6 hPa West 8 km/h 9.7 km/h 63% 0 mm 417 W/m2
10:57 1.6 °C -4.7 °C 1001.6 hPa WSW 9.7 km/h 11.3 km/h 63% 0 mm 425 W/m2
11:02 1.8 °C -4.7 °C 1001.6 hPa WSW 6.4 km/h 11.3 km/h 62% 0 mm 434 W/m2
11:07 1.8 °C -4.4 °C 1001.2 hPa WSW 9.7 km/h 11.3 km/h 63% 0 mm 443 W/m2
11:12 1.9 °C -4.4 °C 1001.6 hPa WSW 6.4 km/h 11.3 km/h 63% 0 mm 448 W/m2
11:17 2.1 °C -4.2 °C 1001.2 hPa WSW 4.8 km/h 9.7 km/h 63% 0 mm 457 W/m2
11:22 2.3 °C -4.3 °C 1001.2 hPa WSW 6.4 km/h 9.7 km/h 62% 0 mm 464 W/m2
11:27 2.4 °C -4.2 °C 1001.2 hPa Calm   9.7 km/h 62% 0 mm 473 W/m2
11:32 2.7 °C -4.1 °C 1001.2 hPa SW 6.4 km/h 9.7 km/h 61% 0 mm 482 W/m2
11:37 3.1 °C -3.7 °C 1001.2 hPa SW 6.4 km/h 9.7 km/h 61% 0 mm 487 W/m2
11:42 3.1 °C -3.7 °C 1001.6 hPa WSW 6.4 km/h 9.7 km/h 61% 0 mm 494 W/m2
11:47 3 °C -3.8 °C 1001.6 hPa WSW 6.4 km/h 9.7 km/h 61% 0 mm 497 W/m2
11:52 3.1 °C -3.5 °C 1001.6 hPa WSW 9.7 km/h 11.3 km/h 62% 0 mm 503 W/m2
11:57 3.3 °C -3.3 °C 1001.2 hPa West 4.8 km/h 11.3 km/h 62% 0 mm 504 W/m2
12:02 3.4 °C -2.9 °C 1001.2 hPa West 6.4 km/h 11.3 km/h 63% 0 mm 510 W/m2
12:07 3.5 °C -2.9 °C 1001.2 hPa West 8 km/h 11.3 km/h 63% 0 mm 515 W/m2
12:12 3.4 °C -2.9 °C 1001.2 hPa West 6.4 km/h 11.3 km/h 63% 0 mm 519 W/m2
12:17 3.6 °C -2.8 °C 1001.2 hPa West 6.4 km/h 11.3 km/h 63% 0 mm 524 W/m2
12:22 3.7 °C -2.4 °C 1000.9 hPa West 8 km/h 9.7 km/h 64% 0 mm 527 W/m2
12:27 3.9 °C -2.5 °C 1000.9 hPa WNW 6.4 km/h 9.7 km/h 63% 0 mm 529 W/m2
12:32 4 °C -2.4 °C 1000.9 hPa West 8 km/h 9.7 km/h 63% 0 mm 531 W/m2
12:37 4.1 °C -2.2 °C 1000.9 hPa West 8 km/h 11.3 km/h 64% 0 mm 534 W/m2
12:42 4.3 °C -1.9 °C 1000.9 hPa West 6.4 km/h 11.3 km/h 64% 0 mm 536 W/m2
12:47 4.4 °C -1.8 °C 1000.6 hPa West 4.8 km/h 8 km/h 64% 0 mm 540 W/m2
12:52 4.5 °C -1.7 °C 1000.6 hPa West 3.2 km/h 9.7 km/h 64% 0 mm 538 W/m2
12:57 4.6 °C -1.8 °C 1000.6 hPa Calm   9.7 km/h 63% 0 mm 540 W/m2
13:02 4.8 °C -1.6 °C 1000.6 hPa Calm   8 km/h 63% 0 mm 541 W/m2
13:07 5 °C -1.4 °C 1000.6 hPa Calm   8 km/h 63% 0 mm 541 W/m2
13:12 5.1 °C -1.6 °C 1000.2 hPa WNW 6.4 km/h 8 km/h 62% 0 mm 529 W/m2
13:17 5.2 °C -1.3 °C 1000.2 hPa West 8 km/h 9.7 km/h 63% 0 mm 552 W/m2
13:22 5.2 °C -1.3 °C 1000.2 hPa NW 9.7 km/h 11.3 km/h 63% 0 mm 543 W/m2
13:27 5.2 °C -1.3 °C 1000.2 hPa WNW 9.7 km/h 11.3 km/h 63% 0 mm 471 W/m2
13:32 5.3 °C -1 °C 1000.2 hPa West 3.2 km/h 11.3 km/h 64% 0 mm 497 W/m2
13:37 5.4 °C -1.3 °C 1000.2 hPa West 6.4 km/h 9.7 km/h 62% 0 mm 399 W/m2
13:42 5.4 °C -1.1 °C 1000.2 hPa West 8 km/h 12.9 km/h 63% 0 mm 459 W/m2
13:47 5.5 °C -1 °C 999.9 hPa West 9.7 km/h 12.9 km/h 63% 0 mm 513 W/m2
13:52 5.6 °C -0.9 °C 999.9 hPa West 8 km/h 11.3 km/h 63% 0 mm 448 W/m2
13:57 5.6 °C -0.9 °C 999.9 hPa West 9.7 km/h 12.9 km/h 63% 0 mm 527 W/m2
14:02 5.7 °C -0.8 °C 999.9 hPa WNW 11.3 km/h 12.9 km/h 63% 0 mm 543 W/m2
14:07 5.8 °C -0.7 °C 999.9 hPa West 11.3 km/h 12.9 km/h 63% 0 mm 487 W/m2
14:12 5.6 °C -1.1 °C 999.9 hPa West 12.9 km/h 14.5 km/h 62% 0 mm 364 W/m2
14:17 5.4 °C -1.1 °C 999.5 hPa West 12.9 km/h 14.5 km/h 63% 0 mm 329 W/m2
14:22 5.4 °C -0.9 °C 999.5 hPa West 11.3 km/h 14.5 km/h 64% 0 mm 237 W/m2
14:27 5.3 °C -1.2 °C 999.5 hPa West 9.7 km/h 14.5 km/h 63% 0 mm 267 W/m2
14:32 5.3 °C -0.9 °C 999.5 hPa West 8 km/h 12.9 km/h 64% 0 mm 276 W/m2
14:37 5.3 °C -0.9 °C 999.5 hPa West 8 km/h 12.9 km/h 64% 0 mm 250 W/m2
14:42 5.3 °C -0.7 °C 999.5 hPa WNW 6.4 km/h 11.3 km/h 65% 0 mm 253 W/m2
14:47 5.4 °C -0.7 °C 999.5 hPa West 9.7 km/h 11.3 km/h 65% 0 mm 236 W/m2
14:52 5.3 °C -0.9 °C 999.5 hPa West 9.7 km/h 12.9 km/h 64% 0 mm 221 W/m2
14:53 5.4 °C -0.7 °C 999.5 hPa West 8 km/h 12.9 km/h 65% 0 mm 223 W/m2
14:58 5.3 °C -0.8 °C 999.2 hPa West 9.7 km/h 12.9 km/h 65% 0 mm 225 W/m2
15:03 5.3 °C -0.8 °C 999.2 hPa West 11.3 km/h 12.9 km/h 65% 0 mm 225 W/m2
15:08 5.3 °C -0.8 °C 999.2 hPa West 11.3 km/h 12.9 km/h 65% 0 mm 225 W/m2
15:13 5.3 °C -0.7 °C 999.2 hPa West 9.7 km/h 12.9 km/h 65% 0 mm 227 W/m2
15:18 5.3 °C -0.6 °C 999.2 hPa West 8 km/h 12.9 km/h 66% 0 mm 218 W/m2
15:28 5.3 °C -0.6 °C 999.2 hPa West 11.3 km/h 12.9 km/h 66% 0 mm 199 W/m2
15:33 5.3 °C -0.7 °C 999.5 hPa West 9.7 km/h 12.9 km/h 65% 0 mm 185 W/m2
15:38 5.3 °C -0.7 °C 999.2 hPa West 12.9 km/h 14.5 km/h 65% 0 mm 181 W/m2
15:43 5.2 °C -0.6 °C 999.2 hPa West 9.7 km/h 14.5 km/h 66% 0 mm 176 W/m2
15:48 5.2 °C -0.4 °C 999.2 hPa West 11.3 km/h 14.5 km/h 67% 0 mm 167 W/m2
15:53 5.1 °C -0.3 °C 999.2 hPa West 9.7 km/h 12.9 km/h 68% 0 mm 169 W/m2
15:58 5.1 °C -0.3 °C 999.2 hPa West 9.7 km/h 12.9 km/h 68% 0 mm 160 W/m2
16:03 5 °C -0.4 °C 999.2 hPa West 11.3 km/h 14.5 km/h 68% 0 mm 144 W/m2
16:08 5 °C -0.4 °C 999.2 hPa West 12.9 km/h 14.5 km/h 68% 0 mm 135 W/m2
16:13 4.9 °C -0.5 °C 999.2 hPa West 11.3 km/h 12.9 km/h 68% 0 mm 125 W/m2
16:18 4.8 °C -0.4 °C 999.2 hPa West 12.9 km/h 12.9 km/h 69% 0 mm 121 W/m2
16:23 4.8 °C -0.4 °C 999.5 hPa West 9.7 km/h 12.9 km/h 69% 0 mm 127 W/m2
16:28 4.7 °C -0.3 °C 999.5 hPa West 9.7 km/h 12.9 km/h 70% 0 mm 113 W/m2
16:33 4.7 °C -0.5 °C 999.5 hPa West 11.3 km/h 12.9 km/h 69% 0 mm 116 W/m2
16:38 4.8 °C -0.4 °C 999.5 hPa West 9.7 km/h 12.9 km/h 69% 0 mm 104 W/m2
16:43 4.7 °C -0.3 °C 999.5 hPa West 8 km/h 11.3 km/h 70% 0 mm 95 W/m2
16:48 4.7 °C -0.3 °C 999.5 hPa West 8 km/h 11.3 km/h 70% 0 mm 90 W/m2
16:53 4.7 °C -0.3 °C 999.5 hPa West 9.7 km/h 12.9 km/h 70% 0 mm 86 W/m2
16:58 4.6 °C -0.4 °C 999.5 hPa West 11.3 km/h 12.9 km/h 70% 0 mm 88 W/m2
17:03 4.5 °C -0.3 °C 999.5 hPa West 11.3 km/h 14.5 km/h 71% 0 mm 63 W/m2
17:08 4.5 °C -0.3 °C 999.5 hPa West 11.3 km/h 14.5 km/h 71% 0 mm 42 W/m2
17:13 4.4 °C -0.4 °C 999.5 hPa West 8 km/h 12.9 km/h 71% 0 mm 44 W/m2
17:18 4.3 °C -0.4 °C 999.5 hPa WSW 11.3 km/h 11.3 km/h 71% 0 mm 40 W/m2
17:23 4.2 °C -0.4 °C 999.5 hPa WSW 6.4 km/h 11.3 km/h 72% 0 mm 35 W/m2
17:28 4.1 °C -0.5 °C 999.5 hPa West 8 km/h 12.9 km/h 72% 0 mm 32 W/m2
17:33 4.1 °C -0.6 °C 999.5 hPa West 6.4 km/h 12.9 km/h 72% 0 mm 26 W/m2
17:38 4.1 °C -0.5 °C 999.5 hPa WSW 8 km/h 11.3 km/h 72% 0 mm 21 W/m2
17:43 4.1 °C -0.5 °C 999.5 hPa West 6.4 km/h 11.3 km/h 72% 0 mm 18 W/m2
17:48 4.1 °C 0.2 °C 999.5 hPa West 8 km/h 11.3 km/h 76% 0 mm 12 W/m2
17:53 4 °C -0.6 °C 999.5 hPa West 8 km/h 11.3 km/h 72% 0 mm 9 W/m2
17:58 4.1 °C -0.6 °C 999.9 hPa WNW 8 km/h 12.9 km/h 72% 0 mm 7 W/m2
18:03 3.9 °C -0.4 °C 999.9 hPa West 11.3 km/h 12.9 km/h 73% 0 mm 0 W/m2
18:08 3.9 °C -0.5 °C 999.9 hPa West 6.4 km/h 11.3 km/h 73% 0 mm 0 W/m2
18:13 3.9 °C -0.5 °C 999.9 hPa West 8 km/h 11.3 km/h 73% 0 mm 0 W/m2
18:18 3.8 °C -0.4 °C 999.9 hPa West 9.7 km/h 11.3 km/h 74% 0 mm 0 W/m2
18:23 3.7 °C -0.6 °C 999.9 hPa West 8 km/h 11.3 km/h 74% 0 mm 0 W/m2
18:28 3.6 °C -0.4 °C 1000.2 hPa West 6.4 km/h 11.3 km/h 75% 0 mm 0 W/m2
18:33 3.4 °C -0.4 °C 1000.2 hPa West 6.4 km/h 8 km/h 76% 0 mm 0 W/m2
18:38 3.2 °C -0.4 °C 1000.2 hPa West 6.4 km/h 8 km/h 77% 0 mm 0 W/m2
18:43 3.2 °C -0.4 °C 1000.2 hPa West 6.4 km/h 9.7 km/h 77% 0 mm 0 W/m2
18:48 3.3 °C -0.4 °C 1000.2 hPa West 8 km/h 9.7 km/h 77% 0 mm 0 W/m2
18:53 3.3 °C -0.4 °C 1000.6 hPa WSW 6.4 km/h 9.7 km/h 77% 0 mm 0 W/m2
18:58 3.2 °C -0.4 °C 1000.6 hPa WSW 8 km/h 9.7 km/h 77% 0 mm 0 W/m2
19:03 3.1 °C -0.6 °C 1000.6 hPa West 8 km/h 9.7 km/h 77% 0 mm 0 W/m2
19:08 3 °C -0.4 °C 1000.6 hPa WSW 4.8 km/h 9.7 km/h 78% 0 mm 0 W/m2
19:13 3 °C -0.4 °C 1000.6 hPa West 6.4 km/h 8 km/h 78% 0 mm 0 W/m2
19:18 3.1 °C -0.6 °C 1000.6 hPa West 6.4 km/h 8 km/h 77% 0 mm 0 W/m2
19:23 2.9 °C -0.6 °C 1000.6 hPa West 6.4 km/h 6.4 km/h 78% 0 mm 0 W/m2
19:28 2.9 °C -0.6 °C 1000.6 hPa West 6.4 km/h 8 km/h 78% 0 mm 0 W/m2
19:33 3 °C -0.7 °C 1000.6 hPa West 6.4 km/h 8 km/h 77% 0 mm 0 W/m2
19:38 2.9 °C -0.7 °C 1000.6 hPa West 6.4 km/h 8 km/h 77% 0 mm 0 W/m2
19:43 2.9 °C -0.7 °C 1000.6 hPa West 6.4 km/h 8 km/h 77% 0 mm 0 W/m2
19:48 2.9 °C -0.7 °C 1000.6 hPa West 6.4 km/h 8 km/h 77% 0 mm 0 W/m2
19:53 2.8 °C -0.8 °C 1000.6 hPa West 8 km/h 8 km/h 77% 0 mm 0 W/m2
19:58 2.7 °C -0.7 °C 1000.6 hPa WNW 8 km/h 9.7 km/h 78% 0 mm 0 W/m2
20:03 2.8 °C -0.8 °C 1000.6 hPa West 8 km/h 11.3 km/h 77% 0 mm 0 W/m2
20:08 2.8 °C -0.8 °C 1000.6 hPa West 8 km/h 11.3 km/h 77% 0 mm 0 W/m2
20:13 2.9 °C -0.9 °C 1000.6 hPa WNW 9.7 km/h 11.3 km/h 76% 0 mm 0 W/m2
20:18 2.8 °C -1 °C 1000.6 hPa WNW 6.4 km/h 11.3 km/h 76% 0 mm 0 W/m2
20:23 2.7 °C -1.1 °C 1000.6 hPa WNW 6.4 km/h 11.3 km/h 76% 0 mm 0 W/m2
20:28 2.5 °C -1.1 °C 1000.6 hPa West 6.4 km/h 9.7 km/h 77% 0 mm 0 W/m2
20:33 2.4 °C -1.2 °C 1000.9 hPa West 6.4 km/h 9.7 km/h 77% 0 mm 0 W/m2
20:38 2.1 °C -1.4 °C 1000.9 hPa West 4.8 km/h 9.7 km/h 78% 0 mm 0 W/m2
20:43 1.7 °C -1.6 °C 1000.9 hPa Calm   6.4 km/h 79% 0 mm 0 W/m2
20:48 1.5 °C -0.7 °C 1000.9 hPa Calm   6.4 km/h 85% 0 mm 0 W/m2
20:53 1.3 °C -1.7 °C 1000.9 hPa Calm   4.8 km/h 80% 0 mm 0 W/m2
20:58 1.1 °C -2 °C 1000.9 hPa Calm   4.8 km/h 80% 0 mm 0 W/m2
21:03 0.9 °C -1.8 °C 1000.9 hPa Calm     82% 0 mm 0 W/m2
21:08 0.9 °C -1.8 °C 1000.9 hPa Calm     82% 0 mm 0 W/m2
21:13 0.7 °C -2.1 °C 1001.2 hPa Calm     82% 0 mm 0 W/m2
21:18 0.4 °C -2.3 °C 1001.6 hPa Calm     82% 0 mm 0 W/m2
21:23 0.5 °C -1.9 °C 1001.2 hPa Calm     84% 0 mm 0 W/m2
21:28 0.9 °C -1.5 °C 1001.2 hPa WNW 6.4 km/h 6.4 km/h 84% 0 mm 0 W/m2
21:33 1 °C -1.6 °C 1001.2 hPa NW 6.4 km/h 8 km/h 83% 0 mm 0 W/m2
21:38 1.2 °C -1.5 °C 1001.6 hPa WNW 6.4 km/h 9.7 km/h 82% 0 mm 0 W/m2
21:43 1.4 °C -1.3 °C 1001.6 hPa NW 6.4 km/h 9.7 km/h 82% 0 mm 0 W/m2
21:48 1.6 °C -1.3 °C 1001.9 hPa NW 1.6 km/h 9.7 km/h 81% 0 mm 0 W/m2
21:53 1.6 °C -1.3 °C 1001.9 hPa NW 6.4 km/h 9.7 km/h 81% 0 mm 0 W/m2
21:58 1.7 °C -1 °C 1001.9 hPa NW 6.4 km/h 11.3 km/h 82% 0 mm 0 W/m2
22:03 1.8 °C -0.9 °C 1001.9 hPa NW 6.4 km/h 11.3 km/h 82% 0 mm 0 W/m2
22:08 1.8 °C -0.9 °C 1001.9 hPa NW 6.4 km/h 11.3 km/h 82% 0 mm 0 W/m2
22:13 1.8 °C -0.8 °C 1001.9 hPa NW 6.4 km/h 9.7 km/h 83% 0 mm 0 W/m2
22:18 1.7 °C -0.9 °C 1001.9 hPa NW 6.4 km/h 9.7 km/h 83% 0 mm 0 W/m2
22:23 1.6 °C -0.8 °C 1001.9 hPa NW 6.4 km/h 9.7 km/h 84% 0 mm 0 W/m2
22:28 1.6 °C -0.7 °C 1001.9 hPa NW 9.7 km/h 11.3 km/h 85% 0 mm 0 W/m2
22:33 1.6 °C -0.7 °C 1001.9 hPa NW 6.4 km/h 11.3 km/h 85% 0 mm 0 W/m2
22:38 1.6 °C -0.7 °C 1002.3 hPa NW 8 km/h 11.3 km/h 85% 0 mm 0 W/m2
22:43 1.6 °C -0.6 °C 1002.3 hPa NW 6.4 km/h 12.9 km/h 86% 0 mm 0 W/m2
22:48 1.5 °C -0.6 °C 1002.3 hPa NW 8 km/h 12.9 km/h 86% 0 mm 0 W/m2
22:53 1.4 °C -0.5 °C 1002.3 hPa WNW 6.4 km/h 9.7 km/h 87% 0 mm 0 W/m2
22:58 1.4 °C -0.6 °C 1002.6 hPa NW 6.4 km/h 9.7 km/h 87% 0 mm 0 W/m2
23:03 1.3 °C -0.4 °C 1002.6 hPa WNW 9.7 km/h 9.7 km/h 88% 0 mm 0 W/m2
23:08 1.3 °C -0.5 °C 1002.6 hPa WNW 6.4 km/h 9.7 km/h 88% 0 mm 0 W/m2
23:13 1.2 °C -0.4 °C 1002.6 hPa NW 6.4 km/h 11.3 km/h 89% 0 mm 0 W/m2
23:19 1.1 °C -0.5 °C 1002.6 hPa NW 6.4 km/h 11.3 km/h 89% 0 mm 0 W/m2
23:24 1.1 °C -0.4 °C 1002.6 hPa NW 8 km/h 11.3 km/h 90% 0 mm 0 W/m2
23:29 1.1 °C -0.4 °C 1002.6 hPa NW 6.4 km/h 11.3 km/h 90% 0 mm 0 W/m2
23:34 0.9 °C -0.3 °C 1002.6 hPa WNW 8 km/h 11.3 km/h 91% 0 mm 0 W/m2
23:39 0.9 °C -0.4 °C 1002.6 hPa NW 6.4 km/h 11.3 km/h 91% 0 mm 0 W/m2
23:44 0.8 °C -0.3 °C 1002.9 hPa Calm   9.7 km/h 92% 0 mm 0 W/m2
23:49 0.7 °C -0.4 °C 1002.9 hPa Calm   8 km/h 92% 0 mm 0 W/m2
23:54 0.7 °C -0.4 °C 1002.9 hPa WNW 6.4 km/h 8 km/h 92% 0 mm 0 W/m2
23:59 0.7 °C -0.5 °C 1003.3 hPa Calm   8 km/h 92% 0 mm 0 W/m2
Bismarck, North Dakota, USA
Compliments of Weather Underground - 4 mb